sensor_id;sensor_type;location;lat;lon;timestamp;temperature;humidity
30150;DHT22;16962;48.646;9.026;2022-10-18T00:00:21;13.10;1.00
30150;DHT22;16962;48.646;9.026;2022-10-18T00:03:10;13.10;99.90
30150;DHT22;16962;48.646;9.026;2022-10-18T00:05:57;13.00;99.90
30150;DHT22;16962;48.646;9.026;2022-10-18T00:08:45;12.90;99.90
30150;DHT22;16962;48.646;9.026;2022-10-18T00:11:33;13.00;99.90
30150;DHT22;16962;48.646;9.026;2022-10-18T00:14:22;13.00;1.00
30150;DHT22;16962;48.646;9.026;2022-10-18T00:17:09;12.90;1.00
30150;DHT22;16962;48.646;9.026;2022-10-18T00:20:06;12.80;1.00
30150;DHT22;16962;48.646;9.026;2022-10-18T00:22:57;12.80;1.00
30150;DHT22;16962;48.646;9.026;2022-10-18T00:25:44;12.80;1.00
30150;DHT22;16962;48.646;9.026;2022-10-18T00:28:33;12.80;99.90
30150;DHT22;16962;48.646;9.026;2022-10-18T00:31:24;12.80;99.90
30150;DHT22;16962;48.646;9.026;2022-10-18T00:34:13;12.70;99.90
30150;DHT22;16962;48.646;9.026;2022-10-18T00:37:05;12.80;99.90
30150;DHT22;16962;48.646;9.026;2022-10-18T00:39:55;12.90;99.90
30150;DHT22;16962;48.646;9.026;2022-10-18T00:42:47;13.00;4.10
30150;DHT22;16962;48.646;9.026;2022-10-18T00:45:34;13.10;1.00
30150;DHT22;16962;48.646;9.026;2022-10-18T00:48:21;13.30;99.90
30150;DHT22;16962;48.646;9.026;2022-10-18T00:51:09;13.50;99.90
30150;DHT22;16962;48.646;9.026;2022-10-18T00:54:03;13.60;1.00
30150;DHT22;16962;48.646;9.026;2022-10-18T00:56:58;13.80;99.90
30150;DHT22;16962;48.646;9.026;2022-10-18T00:59:45;13.90;99.90
30150;DHT22;16962;48.646;9.026;2022-10-18T01:02:33;13.90;99.90
30150;DHT22;16962;48.646;9.026;2022-10-18T01:05:21;13.90;99.90
30150;DHT22;16962;48.646;9.026;2022-10-18T01:15:10;14.10;99.90
30150;DHT22;16962;48.646;9.026;2022-10-18T01:18:36;14.20;92.50
30150;DHT22;16962;48.646;9.026;2022-10-18T01:30:47;14.40;1.00
30150;DHT22;16962;48.646;9.026;2022-10-18T01:33:51;14.40;1.00
30150;DHT22;16962;48.646;9.026;2022-10-18T01:36:51;14.40;1.00
30150;DHT22;16962;48.646;9.026;2022-10-18T01:39:45;14.40;1.00
30150;DHT22;16962;48.646;9.026;2022-10-18T01:42:33;14.40;1.00
30150;DHT22;16962;48.646;9.026;2022-10-18T01:45:27;14.40;1.00
30150;DHT22;16962;48.646;9.026;2022-10-18T01:48:16;14.50;1.00
30150;DHT22;16962;48.646;9.026;2022-10-18T01:51:06;14.50;1.00
30150;DHT22;16962;48.646;9.026;2022-10-18T01:53:55;14.50;1.00
30150;DHT22;16962;48.646;9.026;2022-10-18T02:02:51;14.60;1.00
30150;DHT22;16962;48.646;9.026;2022-10-18T02:05:57;14.60;1.00
30150;DHT22;16962;48.646;9.026;2022-10-18T02:08:51;14.60;1.00
30150;DHT22;16962;48.646;9.026;2022-10-18T02:11:43;14.50;1.00
30150;DHT22;16962;48.646;9.026;2022-10-18T02:14:32;14.50;1.00
30150;DHT22;16962;48.646;9.026;2022-10-18T02:17:20;14.50;1.00
30150;DHT22;16962;48.646;9.026;2022-10-18T02:20:12;14.50;1.00
30150;DHT22;16962;48.646;9.026;2022-10-18T02:23:05;14.60;1.00
30150;DHT22;16962;48.646;9.026;2022-10-18T02:25:54;14.50;1.00
30150;DHT22;16962;48.646;9.026;2022-10-18T02:28:44;14.50;1.00
30150;DHT22;16962;48.646;9.026;2022-10-18T02:34:30;14.40;1.00
30150;DHT22;16962;48.646;9.026;2022-10-18T02:37:21;14.40;1.00
30150;DHT22;16962;48.646;9.026;2022-10-18T02:40:09;14.40;1.00
30150;DHT22;16962;48.646;9.026;2022-10-18T02:43:00;14.40;1.00
30150;DHT22;16962;48.646;9.026;2022-10-18T02:45:47;14.40;1.00
30150;DHT22;16962;48.646;9.026;2022-10-18T02:48:34;14.30;1.00
30150;DHT22;16962;48.646;9.026;2022-10-18T02:51:22;14.30;1.00
30150;DHT22;16962;48.646;9.026;2022-10-18T02:54:10;14.40;1.00
30150;DHT22;16962;48.646;9.026;2022-10-18T02:56:57;14.40;1.00
30150;DHT22;16962;48.646;9.026;2022-10-18T02:59:48;14.50;1.00
30150;DHT22;16962;48.646;9.026;2022-10-18T03:02:35;14.50;1.00
30150;DHT22;16962;48.646;9.026;2022-10-18T03:05:23;14.50;1.00
30150;DHT22;16962;48.646;9.026;2022-10-18T03:08:10;14.60;1.00
30150;DHT22;16962;48.646;9.026;2022-10-18T03:11:01;14.80;1.00
30150;DHT22;16962;48.646;9.026;2022-10-18T03:13:48;14.90;1.00
30150;DHT22;16962;48.646;9.026;2022-10-18T03:16:39;15.00;1.00
30150;DHT22;16962;48.646;9.026;2022-10-18T03:19:26;15.00;1.00
30150;DHT22;16962;48.646;9.026;2022-10-18T03:22:16;15.10;1.00
30150;DHT22;16962;48.646;9.026;2022-10-18T03:25:04;15.10;1.00
30150;DHT22;16962;48.646;9.026;2022-10-18T03:27:53;15.10;1.00
30150;DHT22;16962;48.646;9.026;2022-10-18T03:30:41;15.20;1.00
30150;DHT22;16962;48.646;9.026;2022-10-18T03:33:30;15.20;1.00
30150;DHT22;16962;48.646;9.026;2022-10-18T03:36:18;15.20;1.00
30150;DHT22;16962;48.646;9.026;2022-10-18T03:39:05;15.40;1.00
30150;DHT22;16962;48.646;9.026;2022-10-18T03:41:54;15.50;1.00
30150;DHT22;16962;48.646;9.026;2022-10-18T03:44:43;15.60;1.00
30150;DHT22;16962;48.646;9.026;2022-10-18T03:47:31;15.60;99.90
30150;DHT22;16962;48.646;9.026;2022-10-18T03:50:18;15.60;99.90
30150;DHT22;16962;48.646;9.026;2022-10-18T03:53:05;15.50;99.90
30150;DHT22;16962;48.646;9.026;2022-10-18T03:55:53;15.40;1.00
30150;DHT22;16962;48.646;9.026;2022-10-18T03:58:41;15.40;1.00
30150;DHT22;16962;48.646;9.026;2022-10-18T04:01:31;15.30;1.00
30150;DHT22;16962;48.646;9.026;2022-10-18T04:04:19;15.30;1.00
30150;DHT22;16962;48.646;9.026;2022-10-18T04:07:07;15.20;1.00
30150;DHT22;16962;48.646;9.026;2022-10-18T04:09:56;15.10;1.00
30150;DHT22;16962;48.646;9.026;2022-10-18T04:12:43;14.80;1.00
30150;DHT22;16962;48.646;9.026;2022-10-18T04:15:31;14.50;1.00
30150;DHT22;16962;48.646;9.026;2022-10-18T04:18:18;14.30;1.00
30150;DHT22;16962;48.646;9.026;2022-10-18T04:21:05;14.00;1.00
30150;DHT22;16962;48.646;9.026;2022-10-18T04:23:54;13.80;1.00
30150;DHT22;16962;48.646;9.026;2022-10-18T04:26:42;13.90;25.60
30150;DHT22;16962;48.646;9.026;2022-10-18T04:29:29;14.00;33.40
30150;DHT22;16962;48.646;9.026;2022-10-18T04:32:17;14.00;30.30
30150;DHT22;16962;48.646;9.026;2022-10-18T04:35:05;14.10;18.30
30150;DHT22;16962;48.646;9.026;2022-10-18T04:37:54;14.20;1.00
30150;DHT22;16962;48.646;9.026;2022-10-18T04:41:00;14.20;1.00
30150;DHT22;16962;48.646;9.026;2022-10-18T04:43:47;14.10;1.00
30150;DHT22;16962;48.646;9.026;2022-10-18T04:46:39;14.10;1.00
30150;DHT22;16962;48.646;9.026;2022-10-18T04:49:31;14.10;1.00
30150;DHT22;16962;48.646;9.026;2022-10-18T04:52:18;14.10;1.00
30150;DHT22;16962;48.646;9.026;2022-10-18T04:55:09;14.10;1.00
30150;DHT22;16962;48.646;9.026;2022-10-18T04:58:14;14.10;1.00
30150;DHT22;16962;48.646;9.026;2022-10-18T05:01:06;14.00;4.80
30150;DHT22;16962;48.646;9.026;2022-10-18T05:03:54;14.10;16.20
30150;DHT22;16962;48.646;9.026;2022-10-18T05:06:41;14.00;22.70
30150;DHT22;16962;48.646;9.026;2022-10-18T05:09:28;13.90;39.40
30150;DHT22;16962;48.646;9.026;2022-10-18T05:12:16;13.90;69.60
30150;DHT22;16962;48.646;9.026;2022-10-18T05:15:05;14.00;79.40
30150;DHT22;16962;48.646;9.026;2022-10-18T05:17:52;14.10;54.00
30150;DHT22;16962;48.646;9.026;2022-10-18T05:20:40;13.90;47.00
30150;DHT22;16962;48.646;9.026;2022-10-18T05:23:27;13.70;81.90
30150;DHT22;16962;48.646;9.026;2022-10-18T05:26:14;13.60;99.90
30150;DHT22;16962;48.646;9.026;2022-10-18T05:29:02;13.70;99.90
30150;DHT22;16962;48.646;9.026;2022-10-18T05:31:50;13.80;99.90
30150;DHT22;16962;48.646;9.026;2022-10-18T05:34:37;14.10;99.90
30150;DHT22;16962;48.646;9.026;2022-10-18T05:37:25;14.40;97.40
30150;DHT22;16962;48.646;9.026;2022-10-18T05:40:14;14.60;29.10
30150;DHT22;16962;48.646;9.026;2022-10-18T05:43:06;14.80;1.00
30150;DHT22;16962;48.646;9.026;2022-10-18T05:45:53;15.10;1.00
30150;DHT22;16962;48.646;9.026;2022-10-18T05:48:42;15.20;1.00
30150;DHT22;16962;48.646;9.026;2022-10-18T05:51:32;15.20;1.00
30150;DHT22;16962;48.646;9.026;2022-10-18T05:54:23;15.10;1.00
30150;DHT22;16962;48.646;9.026;2022-10-18T05:57:18;15.10;1.00
30150;DHT22;16962;48.646;9.026;2022-10-18T06:00:06;15.20;1.00
30150;DHT22;16962;48.646;9.026;2022-10-18T06:02:55;15.20;1.00
30150;DHT22;16962;48.646;9.026;2022-10-18T06:05:46;15.10;1.00
30150;DHT22;16962;48.646;9.026;2022-10-18T06:08:34;15.10;1.00
30150;DHT22;16962;48.646;9.026;2022-10-18T06:11:21;15.20;1.00
30150;DHT22;16962;48.646;9.026;2022-10-18T06:14:10;15.30;1.00
30150;DHT22;16962;48.646;9.026;2022-10-18T06:16:59;15.30;1.00
30150;DHT22;16962;48.646;9.026;2022-10-18T06:19:47;15.40;1.00
30150;DHT22;16962;48.646;9.026;2022-10-18T06:22:34;15.40;1.00
30150;DHT22;16962;48.646;9.026;2022-10-18T06:25:27;15.60;1.00
30150;DHT22;16962;48.646;9.026;2022-10-18T06:28:20;15.60;1.00
30150;DHT22;16962;48.646;9.026;2022-10-18T06:31:25;15.70;1.00
30150;DHT22;16962;48.646;9.026;2022-10-18T06:34:37;15.80;1.00
30150;DHT22;16962;48.646;9.026;2022-10-18T06:45:53;16.10;1.00
30150;DHT22;16962;48.646;9.026;2022-10-18T06:49:15;16.00;1.00
30150;DHT22;16962;48.646;9.026;2022-10-18T06:52:05;16.10;1.00
30150;DHT22;16962;48.646;9.026;2022-10-18T06:54:53;16.10;1.00
30150;DHT22;16962;48.646;9.026;2022-10-18T06:57:40;16.30;1.00
30150;DHT22;16962;48.646;9.026;2022-10-18T08:47:41;18.60;99.90
30150;DHT22;16962;48.646;9.026;2022-10-18T08:54:54;19.80;99.90
30150;DHT22;16962;48.646;9.026;2022-10-18T08:58:50;20.20;99.90
30150;DHT22;16962;48.646;9.026;2022-10-18T09:59:57;24.10;87.20
30150;DHT22;16962;48.646;9.026;2022-10-18T10:14:46;22.00;92.10
30150;DHT22;16962;48.646;9.026;2022-10-18T10:21:15;20.70;99.90
30150;DHT22;16962;48.646;9.026;2022-10-18T10:31:42;20.60;99.90
30150;DHT22;16962;48.646;9.026;2022-10-18T10:34:35;20.70;99.90
30150;DHT22;16962;48.646;9.026;2022-10-18T10:37:37;21.80;99.90
30150;DHT22;16962;48.646;9.026;2022-10-18T10:40:50;23.00;99.00
30150;DHT22;16962;48.646;9.026;2022-10-18T10:43:37;24.00;90.60
30150;DHT22;16962;48.646;9.026;2022-10-18T10:47:06;24.60;66.50
30150;DHT22;16962;48.646;9.026;2022-10-18T10:49:55;24.30;64.90
30150;DHT22;16962;48.646;9.026;2022-10-18T10:52:46;24.90;57.70
30150;DHT22;16962;48.646;9.026;2022-10-18T10:55:34;24.10;56.30
30150;DHT22;16962;48.646;9.026;2022-10-18T10:58:22;23.90;59.40
30150;DHT22;16962;48.646;9.026;2022-10-18T11:01:19;23.40;64.30
30150;DHT22;16962;48.646;9.026;2022-10-18T11:59:36;28.00;1.00
30150;DHT22;16962;48.646;9.026;2022-10-18T12:06:24;30.80;1.00
30150;DHT22;16962;48.646;9.026;2022-10-18T12:09:31;31.20;1.00
30150;DHT22;16962;48.646;9.026;2022-10-18T12:12:58;30.40;1.00
30150;DHT22;16962;48.646;9.026;2022-10-18T12:16:01;29.60;1.00
30150;DHT22;16962;48.646;9.026;2022-10-18T12:19:03;29.60;1.00
30150;DHT22;16962;48.646;9.026;2022-10-18T12:22:45;28.60;1.00
30150;DHT22;16962;48.646;9.026;2022-10-18T12:25:38;27.20;1.00
30150;DHT22;16962;48.646;9.026;2022-10-18T12:31:54;25.60;1.00
30150;DHT22;16962;48.646;9.026;2022-10-18T12:40:51;25.30;1.00
30150;DHT22;16962;48.646;9.026;2022-10-18T12:51:56;24.00;1.00
30150;DHT22;16962;48.646;9.026;2022-10-18T13:04:57;24.10;1.00
30150;DHT22;16962;48.646;9.026;2022-10-18T13:07:45;23.80;1.00
30150;DHT22;16962;48.646;9.026;2022-10-18T13:10:35;23.30;1.00
30150;DHT22;16962;48.646;9.026;2022-10-18T13:20:57;22.50;1.00
30150;DHT22;16962;48.646;9.026;2022-10-18T13:31:00;22.20;1.80
30150;DHT22;16962;48.646;9.026;2022-10-18T14:11:11;20.50;73.80
30150;DHT22;16962;48.646;9.026;2022-10-18T14:18:29;20.60;61.80
30150;DHT22;16962;48.646;9.026;2022-10-18T14:25:25;20.80;43.10
30150;DHT22;16962;48.646;9.026;2022-10-18T14:32:28;20.70;57.10
30150;DHT22;16962;48.646;9.026;2022-10-18T14:35:30;20.70;63.10
30150;DHT22;16962;48.646;9.026;2022-10-18T14:38:22;20.50;73.50
30150;DHT22;16962;48.646;9.026;2022-10-18T14:41:19;20.40;79.70
30150;DHT22;16962;48.646;9.026;2022-10-18T14:47:12;20.60;73.80
30150;DHT22;16962;48.646;9.026;2022-10-18T14:50:22;20.70;86.80
30150;DHT22;16962;48.646;9.026;2022-10-18T14:53:19;21.60;64.30
30150;DHT22;16962;48.646;9.026;2022-10-18T14:56:30;22.30;37.50
30150;DHT22;16962;48.646;9.026;2022-10-18T15:03:05;22.20;25.10
30150;DHT22;16962;48.646;9.026;2022-10-18T15:06:19;21.80;33.00
30150;DHT22;16962;48.646;9.026;2022-10-18T15:09:15;21.50;36.60
30150;DHT22;16962;48.646;9.026;2022-10-18T15:12:07;21.10;43.70
30150;DHT22;16962;48.646;9.026;2022-10-18T15:15:22;20.80;50.90
30150;DHT22;16962;48.646;9.026;2022-10-18T15:19:35;20.50;64.10
30150;DHT22;16962;48.646;9.026;2022-10-18T15:35:16;19.20;99.90
30150;DHT22;16962;48.646;9.026;2022-10-18T15:54:30;18.50;99.90
30150;DHT22;16962;48.646;9.026;2022-10-18T15:57:34;18.50;99.90
30150;DHT22;16962;48.646;9.026;2022-10-18T16:00:35;18.50;99.90
30150;DHT22;16962;48.646;9.026;2022-10-18T16:03:40;18.50;99.90
30150;DHT22;16962;48.646;9.026;2022-10-18T16:06:30;18.40;99.90
30150;DHT22;16962;48.646;9.026;2022-10-18T16:09:23;18.30;99.90
30150;DHT22;16962;48.646;9.026;2022-10-18T16:12:11;18.30;99.90
30150;DHT22;16962;48.646;9.026;2022-10-18T16:14:59;18.30;99.90
30150;DHT22;16962;48.646;9.026;2022-10-18T16:17:47;18.10;99.90
30150;DHT22;16962;48.646;9.026;2022-10-18T16:20:35;18.00;99.90
30150;DHT22;16962;48.646;9.026;2022-10-18T16:23:25;17.80;99.90
30150;DHT22;16962;48.646;9.026;2022-10-18T16:26:19;17.60;99.90
30150;DHT22;16962;48.646;9.026;2022-10-18T16:29:22;17.40;99.90
30150;DHT22;16962;48.646;9.026;2022-10-18T16:32:20;17.20;99.90
30150;DHT22;16962;48.646;9.026;2022-10-18T16:35:08;17.10;99.90
30150;DHT22;16962;48.646;9.026;2022-10-18T16:37:59;17.00;1.00
30150;DHT22;16962;48.646;9.026;2022-10-18T16:40:46;16.80;1.00
30150;DHT22;16962;48.646;9.026;2022-10-18T16:43:35;16.60;1.00
30150;DHT22;16962;48.646;9.026;2022-10-18T16:46:52;16.50;2.00
30150;DHT22;16962;48.646;9.026;2022-10-18T16:49:46;16.40;92.50
30150;DHT22;16962;48.646;9.026;2022-10-18T16:52:33;16.40;99.90
30150;DHT22;16962;48.646;9.026;2022-10-18T16:55:25;16.30;99.90
30150;DHT22;16962;48.646;9.026;2022-10-18T16:58:19;16.20;99.90
30150;DHT22;16962;48.646;9.026;2022-10-18T17:01:12;16.10;99.90
30150;DHT22;16962;48.646;9.026;2022-10-18T17:04:02;16.00;99.90
30150;DHT22;16962;48.646;9.026;2022-10-18T17:06:51;15.90;99.90
30150;DHT22;16962;48.646;9.026;2022-10-18T17:09:46;15.90;1.00
30150;DHT22;16962;48.646;9.026;2022-10-18T17:12:37;15.90;1.00
30150;DHT22;16962;48.646;9.026;2022-10-18T17:15:41;16.00;1.00
30150;DHT22;16962;48.646;9.026;2022-10-18T17:18:43;16.00;1.00
30150;DHT22;16962;48.646;9.026;2022-10-18T17:21:31;16.10;1.00
30150;DHT22;16962;48.646;9.026;2022-10-18T17:24:24;16.10;1.00
30150;DHT22;16962;48.646;9.026;2022-10-18T17:27:37;16.00;1.00
30150;DHT22;16962;48.646;9.026;2022-10-18T17:30:50;15.90;1.00
30150;DHT22;16962;48.646;9.026;2022-10-18T17:33:50;15.80;1.00
30150;DHT22;16962;48.646;9.026;2022-10-18T17:36:53;15.70;33.30
30150;DHT22;16962;48.646;9.026;2022-10-18T17:40:02;15.60;96.70
30150;DHT22;16962;48.646;9.026;2022-10-18T17:42:53;15.50;99.90
30150;DHT22;16962;48.646;9.026;2022-10-18T17:45:54;15.40;99.90
30150;DHT22;16962;48.646;9.026;2022-10-18T17:48:48;15.30;99.90
30150;DHT22;16962;48.646;9.026;2022-10-18T17:51:35;15.20;99.90
30150;DHT22;16962;48.646;9.026;2022-10-18T17:54:31;15.10;1.00
30150;DHT22;16962;48.646;9.026;2022-10-18T17:57:25;15.00;27.90
30150;DHT22;16962;48.646;9.026;2022-10-18T18:00:14;14.90;99.90
30150;DHT22;16962;48.646;9.026;2022-10-18T18:03:02;14.80;99.90
30150;DHT22;16962;48.646;9.026;2022-10-18T18:05:54;14.70;1.00
30150;DHT22;16962;48.646;9.026;2022-10-18T18:08:49;14.70;99.90
30150;DHT22;16962;48.646;9.026;2022-10-18T18:11:45;14.60;99.90
30150;DHT22;16962;48.646;9.026;2022-10-18T18:14:38;14.60;99.90
30150;DHT22;16962;48.646;9.026;2022-10-18T18:17:26;14.50;99.90
30150;DHT22;16962;48.646;9.026;2022-10-18T18:20:20;14.40;99.90
30150;DHT22;16962;48.646;9.026;2022-10-18T18:23:08;14.40;99.90
30150;DHT22;16962;48.646;9.026;2022-10-18T18:25:56;14.30;1.00
30150;DHT22;16962;48.646;9.026;2022-10-18T18:28:48;14.30;99.90
30150;DHT22;16962;48.646;9.026;2022-10-18T18:31:35;14.20;1.00
30150;DHT22;16962;48.646;9.026;2022-10-18T18:34:37;14.10;99.90
30150;DHT22;16962;48.646;9.026;2022-10-18T18:37:48;14.00;99.90
30150;DHT22;16962;48.646;9.026;2022-10-18T18:41:00;14.00;1.00
30150;DHT22;16962;48.646;9.026;2022-10-18T18:43:59;13.90;99.90
30150;DHT22;16962;48.646;9.026;2022-10-18T18:46:51;13.90;63.80
30150;DHT22;16962;48.646;9.026;2022-10-18T18:49:59;13.80;99.90
30150;DHT22;16962;48.646;9.026;2022-10-18T18:53:20;13.80;99.90
30150;DHT22;16962;48.646;9.026;2022-10-18T18:56:25;13.90;1.00
30150;DHT22;16962;48.646;9.026;2022-10-18T18:59:34;13.80;1.00
30150;DHT22;16962;48.646;9.026;2022-10-18T19:02:32;13.80;1.00
30150;DHT22;16962;48.646;9.026;2022-10-18T19:05:20;13.70;1.00
30150;DHT22;16962;48.646;9.026;2022-10-18T19:08:23;13.60;1.00
30150;DHT22;16962;48.646;9.026;2022-10-18T19:11:35;13.50;1.00
30150;DHT22;16962;48.646;9.026;2022-10-18T19:14:26;13.50;25.60
30150;DHT22;16962;48.646;9.026;2022-10-18T19:17:21;13.50;55.80
30150;DHT22;16962;48.646;9.026;2022-10-18T19:20:16;13.40;58.70
30150;DHT22;16962;48.646;9.026;2022-10-18T19:23:04;13.30;79.50
30150;DHT22;16962;48.646;9.026;2022-10-18T19:26:36;13.40;99.90
30150;DHT22;16962;48.646;9.026;2022-10-18T19:29:42;13.50;99.90
30150;DHT22;16962;48.646;9.026;2022-10-18T19:33:00;13.40;99.90
30150;DHT22;16962;48.646;9.026;2022-10-18T19:35:51;13.40;99.90
30150;DHT22;16962;48.646;9.026;2022-10-18T19:38:41;13.40;99.90
30150;DHT22;16962;48.646;9.026;2022-10-18T19:41:47;13.30;99.90
30150;DHT22;16962;48.646;9.026;2022-10-18T19:44:39;13.10;99.90
30150;DHT22;16962;48.646;9.026;2022-10-18T19:47:29;13.10;99.90
30150;DHT22;16962;48.646;9.026;2022-10-18T19:50:18;13.00;99.90
30150;DHT22;16962;48.646;9.026;2022-10-18T19:53:08;13.00;99.90
30150;DHT22;16962;48.646;9.026;2022-10-18T19:56:01;13.00;99.90
30150;DHT22;16962;48.646;9.026;2022-10-18T19:58:49;12.90;99.90
30150;DHT22;16962;48.646;9.026;2022-10-18T20:01:36;12.90;99.90
30150;DHT22;16962;48.646;9.026;2022-10-18T20:04:26;12.90;99.90
30150;DHT22;16962;48.646;9.026;2022-10-18T20:07:16;12.80;99.90
30150;DHT22;16962;48.646;9.026;2022-10-18T20:10:09;12.80;99.90
30150;DHT22;16962;48.646;9.026;2022-10-18T20:12:57;12.80;99.90
30150;DHT22;16962;48.646;9.026;2022-10-18T20:15:49;12.70;99.90
30150;DHT22;16962;48.646;9.026;2022-10-18T20:18:43;12.60;99.90
30150;DHT22;16962;48.646;9.026;2022-10-18T20:21:37;12.60;99.90
30150;DHT22;16962;48.646;9.026;2022-10-18T20:24:27;12.70;99.90
30150;DHT22;16962;48.646;9.026;2022-10-18T20:27:17;12.70;99.90
30150;DHT22;16962;48.646;9.026;2022-10-18T20:30:09;12.60;99.90
30150;DHT22;16962;48.646;9.026;2022-10-18T20:32:58;12.60;99.90
30150;DHT22;16962;48.646;9.026;2022-10-18T20:35:46;12.60;99.90
30150;DHT22;16962;48.646;9.026;2022-10-18T20:38:40;12.60;99.90
30150;DHT22;16962;48.646;9.026;2022-10-18T20:41:30;12.60;99.90
30150;DHT22;16962;48.646;9.026;2022-10-18T20:44:22;12.60;99.90
30150;DHT22;16962;48.646;9.026;2022-10-18T20:47:14;12.60;99.90
30150;DHT22;16962;48.646;9.026;2022-10-18T20:50:03;12.60;99.90
30150;DHT22;16962;48.646;9.026;2022-10-18T20:52:51;12.70;99.90
30150;DHT22;16962;48.646;9.026;2022-10-18T20:55:39;12.70;99.90
30150;DHT22;16962;48.646;9.026;2022-10-18T20:58:27;12.60;99.90
30150;DHT22;16962;48.646;9.026;2022-10-18T21:01:29;12.50;99.90
30150;DHT22;16962;48.646;9.026;2022-10-18T21:04:17;12.40;99.90
30150;DHT22;16962;48.646;9.026;2022-10-18T21:07:04;12.40;99.90
30150;DHT22;16962;48.646;9.026;2022-10-18T21:09:52;12.40;99.90
30150;DHT22;16962;48.646;9.026;2022-10-18T21:12:39;12.40;99.90
30150;DHT22;16962;48.646;9.026;2022-10-18T21:15:27;12.40;99.90
30150;DHT22;16962;48.646;9.026;2022-10-18T21:18:14;12.50;99.90
30150;DHT22;16962;48.646;9.026;2022-10-18T21:21:11;12.40;99.90
30150;DHT22;16962;48.646;9.026;2022-10-18T21:24:00;12.30;99.90
30150;DHT22;16962;48.646;9.026;2022-10-18T21:26:53;12.20;99.90
30150;DHT22;16962;48.646;9.026;2022-10-18T21:29:49;12.20;99.90
30150;DHT22;16962;48.646;9.026;2022-10-18T21:32:43;12.30;99.90
30150;DHT22;16962;48.646;9.026;2022-10-18T21:35:48;12.40;99.90
30150;DHT22;16962;48.646;9.026;2022-10-18T21:39:11;12.40;99.90
30150;DHT22;16962;48.646;9.026;2022-10-18T21:42:10;12.50;99.90
30150;DHT22;16962;48.646;9.026;2022-10-18T21:45:32;12.50;99.90
30150;DHT22;16962;48.646;9.026;2022-10-18T21:48:32;12.50;99.90
30150;DHT22;16962;48.646;9.026;2022-10-18T21:51:40;12.60;99.90
30150;DHT22;16962;48.646;9.026;2022-10-18T21:55:24;12.60;99.90
30150;DHT22;16962;48.646;9.026;2022-10-18T22:02:28;12.60;99.90
30150;DHT22;16962;48.646;9.026;2022-10-18T22:05:54;12.40;99.90
30150;DHT22;16962;48.646;9.026;2022-10-18T22:09:45;12.20;99.90
30150;DHT22;16962;48.646;9.026;2022-10-18T22:13:05;12.10;99.90
30150;DHT22;16962;48.646;9.026;2022-10-18T22:16:10;12.10;99.90
30150;DHT22;16962;48.646;9.026;2022-10-18T22:19:28;12.10;99.90
30150;DHT22;16962;48.646;9.026;2022-10-18T22:23:05;12.10;99.90
30150;DHT22;16962;48.646;9.026;2022-10-18T22:30:05;12.10;99.90
30150;DHT22;16962;48.646;9.026;2022-10-18T22:33:07;12.00;99.90
30150;DHT22;16962;48.646;9.026;2022-10-18T22:36:21;11.90;99.90
30150;DHT22;16962;48.646;9.026;2022-10-18T22:39:13;12.00;99.90
30150;DHT22;16962;48.646;9.026;2022-10-18T22:42:24;12.30;99.90
30150;DHT22;16962;48.646;9.026;2022-10-18T22:45:37;12.20;99.90
30150;DHT22;16962;48.646;9.026;2022-10-18T22:48:25;12.10;99.90
30150;DHT22;16962;48.646;9.026;2022-10-18T22:51:58;12.00;99.90
30150;DHT22;16962;48.646;9.026;2022-10-18T22:55:36;11.90;99.90
30150;DHT22;16962;48.646;9.026;2022-10-18T23:02:55;12.00;99.90
30150;DHT22;16962;48.646;9.026;2022-10-18T23:05:54;12.00;99.90
30150;DHT22;16962;48.646;9.026;2022-10-18T23:08:41;12.10;99.90
30150;DHT22;16962;48.646;9.026;2022-10-18T23:11:40;12.10;99.90
30150;DHT22;16962;48.646;9.026;2022-10-18T23:14:54;12.10;99.90
30150;DHT22;16962;48.646;9.026;2022-10-18T23:18:18;12.20;99.90
30150;DHT22;16962;48.646;9.026;2022-10-18T23:21:23;12.10;99.90
30150;DHT22;16962;48.646;9.026;2022-10-18T23:24:31;12.00;99.90
30150;DHT22;16962;48.646;9.026;2022-10-18T23:27:19;12.00;99.90
30150;DHT22;16962;48.646;9.026;2022-10-18T23:30:14;12.10;99.90
30150;DHT22;16962;48.646;9.026;2022-10-18T23:33:27;12.10;99.90
30150;DHT22;16962;48.646;9.026;2022-10-18T23:37:04;12.00;99.90
30150;DHT22;16962;48.646;9.026;2022-10-18T23:48:42;11.80;99.90
30150;DHT22;16962;48.646;9.026;2022-10-18T23:51:36;11.80;99.90
30150;DHT22;16962;48.646;9.026;2022-10-18T23:54:25;11.80;99.90
